createdAt,value
2022-09-24T00:02:38.861Z,7.60
2022-09-24T00:05:41.889Z,7.12
2022-09-24T00:08:45.475Z,7.62
2022-09-24T00:11:49.757Z,8.10
2022-09-24T00:14:52.200Z,7.75
2022-09-24T00:17:55.099Z,7.95
2022-09-24T00:20:57.734Z,7.57
2022-09-24T00:24:02.843Z,8.00
2022-09-24T00:27:08.509Z,7.50
2022-09-24T00:30:11.784Z,7.37
2022-09-24T00:33:14.269Z,7.50
2022-09-24T00:36:17.376Z,8.32
2022-09-24T00:39:19.852Z,7.57
2022-09-24T00:42:22.840Z,8.23
2022-09-24T00:45:26.255Z,7.87
2022-09-24T00:48:29.955Z,7.43
2022-09-24T00:51:33.216Z,7.37
2022-09-24T00:54:37.393Z,8.52
2022-09-24T00:57:40.931Z,7.50
2022-09-24T01:00:44.921Z,8.18
2022-09-24T01:03:49.193Z,7.57
2022-09-24T01:06:52.408Z,7.53
2022-09-24T01:09:55.022Z,7.45
2022-09-24T01:13:01.044Z,8.13
2022-09-24T01:16:28.490Z,8.13
2022-09-24T01:20:13.443Z,7.90
2022-09-24T01:23:48.615Z,7.30
2022-09-24T01:27:08.355Z,7.65
2022-09-24T01:30:12.859Z,7.37
2022-09-24T01:33:19.920Z,7.37
2022-09-24T01:36:23.008Z,7.32
2022-09-24T01:39:27.229Z,7.12
2022-09-24T01:42:31.068Z,7.93
2022-09-24T01:45:36.694Z,7.47
2022-09-24T01:48:39.715Z,7.40
2022-09-24T01:51:48.302Z,7.60
2022-09-24T01:54:52.502Z,8.40
2022-09-24T01:58:01.218Z,7.90
2022-09-24T02:01:08.250Z,8.07
2022-09-24T02:04:16.800Z,8.43
2022-09-24T02:07:28.422Z,8.02
2022-09-24T02:10:38.124Z,8.38
2022-09-24T02:13:57.132Z,8.07
2022-09-24T02:17:01.370Z,7.30
2022-09-24T02:20:10.425Z,7.18
2022-09-24T02:23:15.443Z,8.57
2022-09-24T02:26:17.872Z,8.50
2022-09-24T02:29:20.887Z,7.62
2022-09-24T02:32:23.618Z,7.97
2022-09-24T02:35:26.444Z,7.30
2022-09-24T02:38:29.078Z,7.75
2022-09-24T02:41:32.121Z,7.45
2022-09-24T02:44:36.251Z,7.53
2022-09-24T02:47:39.208Z,7.90
2022-09-24T02:50:41.661Z,8.05
2022-09-24T02:53:44.501Z,7.30
2022-09-24T02:56:46.963Z,8.15
2022-09-24T02:59:49.899Z,7.87
2022-09-24T03:02:52.462Z,6.80
2022-09-24T03:05:55.247Z,7.15
2022-09-24T03:08:58.066Z,7.00
2022-09-24T03:12:01.067Z,7.22
2022-09-24T03:15:04.296Z,7.62
2022-09-24T03:18:07.542Z,8.13
2022-09-24T03:21:14.722Z,7.35
2022-09-24T03:24:17.457Z,7.32
2022-09-24T03:27:20.361Z,7.12
2022-09-24T03:30:41.727Z,7.40
2022-09-24T03:33:46.052Z,7.77
2022-09-24T03:36:48.848Z,7.35
2022-09-24T03:39:51.292Z,7.85
2022-09-24T03:42:54.364Z,8.63
2022-09-24T03:45:57.649Z,8.18
2022-09-24T03:49:00.667Z,8.20
2022-09-24T03:52:03.289Z,8.13
2022-09-24T03:55:06.635Z,8.05
2022-09-24T03:58:09.178Z,7.72
2022-09-24T04:01:13.151Z,8.50
2022-09-24T04:04:16.321Z,8.13
2022-09-24T04:07:18.903Z,8.35
2022-09-24T04:10:24.838Z,7.20
2022-09-24T04:13:27.314Z,8.32
2022-09-24T04:16:30.202Z,8.07
2022-09-24T04:19:32.647Z,8.60
2022-09-24T04:22:35.562Z,8.20
2022-09-24T04:25:38.350Z,8.50
2022-09-24T04:28:41.103Z,8.57
2022-09-24T04:31:43.627Z,8.55
2022-09-24T04:34:46.436Z,8.40
2022-09-24T04:37:49.372Z,8.20
2022-09-24T04:40:52.187Z,8.05
2022-09-24T04:43:54.666Z,8.25
2022-09-24T04:47:01.549Z,8.48
2022-09-24T04:50:05.064Z,7.87
2022-09-24T04:53:08.007Z,7.65
2022-09-24T04:56:12.131Z,8.38
2022-09-24T04:59:15.654Z,7.93
2022-09-24T05:02:19.123Z,8.23
2022-09-24T05:05:21.977Z,8.00
2022-09-24T05:08:25.193Z,7.70
2022-09-24T05:11:28.050Z,8.40
2022-09-24T05:14:30.600Z,7.37
2022-09-24T05:17:33.345Z,8.90
2022-09-24T05:20:35.828Z,7.80
2022-09-24T05:23:38.555Z,8.40
2022-09-24T05:26:59.565Z,8.05
2022-09-24T05:30:02.415Z,7.05
2022-09-24T05:33:05.985Z,6.90
2022-09-24T05:36:08.872Z,7.30
2022-09-24T05:39:12.126Z,6.80
2022-09-24T05:42:15.041Z,7.47
2022-09-24T05:45:18.534Z,7.45
2022-09-24T05:48:21.445Z,6.82
2022-09-24T05:51:24.077Z,6.27
2022-09-24T05:54:27.175Z,6.57
2022-09-24T05:57:29.605Z,7.22
2022-09-24T06:00:32.716Z,7.28
2022-09-24T06:03:35.692Z,7.32
2022-09-24T06:06:38.269Z,7.60
2022-09-24T06:09:40.958Z,7.25
2022-09-24T06:12:45.076Z,7.18
2022-09-24T06:15:48.094Z,7.32
2022-09-24T06:18:50.558Z,7.45
2022-09-24T06:21:53.365Z,6.97
2022-09-24T06:24:56.178Z,7.78
2022-09-24T06:28:01.258Z,6.93
2022-09-24T06:31:04.317Z,6.60
2022-09-24T06:34:07.160Z,6.82
2022-09-24T06:37:09.572Z,7.80
2022-09-24T06:40:12.391Z,8.40
2022-09-24T06:43:15.392Z,7.22
2022-09-24T06:46:18.319Z,6.95
2022-09-24T06:49:20.883Z,7.25
2022-09-24T06:52:23.654Z,6.80
2022-09-24T06:55:26.873Z,6.87
2022-09-24T06:58:30.137Z,7.28
2022-09-24T07:01:33.084Z,6.82
2022-09-24T07:04:36.170Z,6.93
2022-09-24T07:07:38.708Z,7.20
2022-09-24T07:10:45.511Z,7.05
2022-09-24T07:13:47.958Z,7.43
2022-09-24T07:16:50.767Z,6.87
2022-09-24T07:19:53.490Z,6.60
2022-09-24T07:22:56.501Z,6.67
2022-09-24T07:25:59.074Z,6.97
2022-09-24T07:29:02.654Z,7.55
2022-09-24T07:32:05.664Z,6.53
2022-09-24T07:35:09.203Z,6.32
2022-09-24T07:38:12.589Z,7.10
2022-09-24T07:41:15.447Z,6.68
2022-09-24T07:44:22.932Z,7.25
2022-09-24T07:47:25.883Z,6.70
2022-09-24T07:50:30.309Z,6.78
2022-09-24T07:53:33.031Z,6.23
2022-09-24T07:56:35.818Z,6.45
2022-09-24T07:59:40.362Z,5.82
2022-09-24T08:02:42.790Z,5.32
2022-09-24T08:05:46.253Z,5.25
2022-09-24T08:08:50.244Z,5.00
2022-09-24T08:11:53.506Z,4.62
2022-09-24T08:14:56.535Z,5.18
2022-09-24T08:18:05.997Z,5.05
2022-09-24T08:21:10.880Z,4.50
2022-09-24T08:24:13.712Z,4.80
2022-09-24T08:27:17.673Z,4.70
2022-09-24T08:30:21.332Z,4.40
2022-09-24T08:33:23.808Z,4.53
2022-09-24T08:36:28.061Z,3.83
2022-09-24T08:39:30.536Z,4.13
2022-09-24T08:43:24.083Z,4.18
2022-09-24T08:46:50.783Z,3.25
2022-09-24T08:50:27.754Z,3.40
2022-09-24T08:53:51.338Z,3.33
2022-09-24T08:57:49.321Z,3.78
2022-09-24T09:01:12.940Z,3.12
2022-09-24T09:04:34.208Z,3.45
2022-09-24T09:08:01.250Z,3.22
2022-09-24T09:11:05.142Z,3.43
2022-09-24T09:14:17.642Z,3.00
2022-09-24T09:17:26.177Z,2.85
2022-09-24T09:20:49.486Z,2.97
2022-09-24T09:23:54.267Z,2.80
2022-09-24T09:26:57.106Z,2.70
2022-09-24T09:30:04.389Z,2.42
2022-09-24T09:33:21.579Z,2.03
2022-09-24T09:36:33.381Z,1.67
2022-09-24T09:39:57.571Z,1.50
2022-09-24T09:43:04.984Z,1.53
2022-09-24T09:46:26.564Z,1.55
2022-09-24T09:49:33.829Z,1.60
2022-09-24T09:52:39.848Z,1.60
2022-09-24T09:55:42.313Z,1.15
2022-09-24T09:58:47.419Z,1.43
2022-09-24T10:01:55.887Z,1.10
2022-09-24T10:04:59.847Z,1.50
2022-09-24T10:08:02.512Z,1.10
2022-09-24T10:11:06.853Z,1.37
2022-09-24T10:14:12.281Z,1.30
2022-09-24T10:17:18.399Z,1.33
2022-09-24T10:20:27.751Z,1.40
2022-09-24T10:23:38.187Z,1.52
2022-09-24T10:26:45.487Z,1.40
2022-09-24T10:30:07.074Z,1.37
2022-09-24T10:33:09.628Z,1.30
2022-09-24T10:36:34.876Z,1.65
2022-09-24T10:39:37.417Z,1.48
2022-09-24T10:42:40.819Z,1.50
2022-09-24T10:45:52.214Z,1.40
2022-09-24T10:49:03.859Z,1.70
2022-09-24T10:52:25.019Z,1.70
2022-09-24T10:55:52.639Z,1.65
2022-09-24T10:59:21.192Z,1.52
2022-09-24T11:02:23.945Z,1.60
2022-09-24T11:05:36.382Z,1.62
2022-09-24T11:09:08.769Z,1.58
2022-09-24T11:12:30.367Z,1.40
2022-09-24T11:15:53.617Z,1.45
2022-09-24T11:18:57.725Z,1.20
2022-09-24T11:22:31.085Z,1.20
2022-09-24T11:25:55.228Z,0.85
2022-09-24T11:29:07.307Z,1.10
2022-09-24T11:32:33.852Z,1.15
2022-09-24T11:35:52.861Z,1.10
2022-09-24T11:39:06.086Z,0.85
2022-09-24T11:42:22.531Z,1.10
2022-09-24T11:46:00.415Z,1.00
2022-09-24T11:49:18.558Z,1.40
2022-09-24T11:52:36.224Z,0.90
2022-09-24T11:55:53.634Z,1.00
2022-09-24T11:59:19.460Z,1.08
2022-09-24T12:02:25.212Z,0.80
2022-09-24T12:05:35.048Z,1.00
2022-09-24T12:08:48.808Z,1.00
2022-09-24T12:12:21.317Z,0.90
2022-09-24T12:15:27.893Z,0.90
2022-09-24T12:18:40.306Z,1.02
2022-09-24T12:21:43.878Z,0.82
2022-09-24T12:24:51.308Z,0.90
2022-09-24T12:27:53.827Z,1.00
2022-09-24T12:31:16.502Z,0.95
2022-09-24T12:34:44.690Z,0.70
2022-09-24T12:37:51.586Z,1.05
2022-09-24T12:41:22.155Z,1.03
2022-09-24T12:44:34.461Z,0.75
2022-09-24T12:47:44.624Z,0.85
2022-09-24T12:50:56.649Z,1.00
2022-09-24T12:54:06.356Z,1.02
2022-09-24T12:57:14.400Z,1.50
2022-09-24T13:00:31.860Z,1.60
2022-09-24T13:03:44.569Z,1.17
2022-09-24T13:06:49.028Z,1.23
2022-09-24T13:09:52.650Z,1.27
2022-09-24T13:12:56.590Z,1.23
2022-09-24T13:16:01.453Z,1.98
2022-09-24T13:19:06.121Z,2.78
2022-09-24T13:22:32.018Z,1.37
2022-09-24T13:25:34.524Z,1.23
2022-09-24T13:29:19.087Z,1.40
2022-09-24T13:32:22.172Z,1.42
2022-09-24T13:35:29.308Z,1.90
2022-09-24T13:38:36.369Z,1.40
2022-09-24T13:42:08.283Z,1.37
2022-09-24T13:45:18.523Z,1.03
2022-09-24T13:48:39.084Z,1.30
2022-09-24T13:51:41.883Z,1.10
2022-09-24T13:54:49.888Z,1.58
2022-09-24T13:57:52.468Z,1.00
2022-09-24T14:00:56.639Z,1.20
2022-09-24T14:04:02.024Z,1.40
2022-09-24T14:07:04.963Z,1.20
2022-09-24T14:10:13.780Z,1.30
2022-09-24T14:13:22.266Z,1.80
2022-09-24T14:16:26.055Z,1.50
2022-09-24T14:19:28.647Z,1.30
2022-09-24T14:22:37.026Z,1.50
2022-09-24T14:25:40.067Z,1.50
2022-09-24T14:28:43.129Z,1.20
2022-09-24T14:31:52.197Z,1.13
2022-09-24T14:34:57.742Z,1.70
2022-09-24T14:38:06.486Z,1.20
2022-09-24T14:41:21.364Z,1.30
2022-09-24T14:44:27.220Z,1.80
2022-09-24T14:47:34.812Z,1.83
2022-09-24T14:50:39.993Z,1.77
2022-09-24T14:53:42.984Z,2.12
2022-09-24T14:56:45.463Z,1.60
2022-09-24T14:59:48.216Z,1.52
2022-09-24T15:03:15.460Z,1.60
2022-09-24T15:06:21.696Z,1.23
2022-09-24T15:09:27.664Z,1.30
2022-09-24T15:12:33.083Z,1.40
2022-09-24T15:15:36.165Z,2.17
2022-09-24T15:18:39.173Z,2.37
2022-09-24T15:21:41.858Z,4.30
2022-09-24T15:24:44.693Z,4.37
2022-09-24T15:27:49.401Z,2.75
2022-09-24T15:30:52.372Z,3.05
2022-09-24T15:33:56.152Z,3.57
2022-09-24T15:36:59.635Z,2.75
2022-09-24T15:40:08.033Z,2.78
2022-09-24T15:43:23.183Z,2.60
2022-09-24T15:46:26.562Z,2.70
2022-09-24T15:49:29.793Z,2.67
2022-09-24T15:52:33.043Z,2.92
2022-09-24T15:55:36.384Z,2.60
2022-09-24T15:58:38.922Z,2.97
2022-09-24T16:01:42.476Z,2.53
2022-09-24T16:04:45.444Z,2.93
2022-09-24T16:07:47.871Z,3.47
2022-09-24T16:10:51.065Z,3.08
2022-09-24T16:13:53.493Z,3.00
2022-09-24T16:16:56.428Z,3.10
2022-09-24T16:19:58.999Z,2.70
2022-09-24T16:23:02.154Z,3.05
2022-09-24T16:26:04.824Z,2.35
2022-09-24T16:29:09.951Z,1.90
2022-09-24T16:32:13.862Z,2.37
2022-09-24T16:35:17.700Z,2.20
2022-09-24T16:38:22.934Z,4.37
2022-09-24T16:41:26.155Z,3.95
2022-09-24T16:44:28.611Z,4.32
2022-09-24T16:47:31.484Z,4.35
2022-09-24T16:50:34.436Z,5.27
2022-09-24T16:53:37.798Z,3.83
2022-09-24T16:56:40.399Z,2.90
2022-09-24T16:59:43.251Z,2.22
2022-09-24T17:02:45.791Z,2.20
2022-09-24T17:05:48.618Z,2.13
2022-09-24T17:09:09.887Z,2.55
2022-09-24T17:12:12.809Z,2.62
2022-09-24T17:15:19.927Z,2.65
2022-09-24T17:18:26.031Z,2.30
2022-09-24T17:21:28.968Z,2.10
2022-09-24T17:24:31.939Z,2.17
2022-09-24T17:27:37.622Z,3.87
2022-09-24T17:30:40.385Z,3.50
2022-09-24T17:33:44.262Z,2.40
2022-09-24T17:36:47.349Z,3.17
2022-09-24T17:39:49.881Z,2.67
2022-09-24T17:42:52.767Z,2.03
2022-09-24T17:45:58.651Z,2.08
2022-09-24T17:49:01.862Z,2.05
2022-09-24T17:52:04.587Z,2.23
2022-09-24T17:55:08.838Z,2.42
2022-09-24T17:58:11.379Z,2.40
2022-09-24T18:01:17.858Z,2.47
2022-09-24T18:04:21.758Z,2.40
2022-09-24T18:07:24.937Z,2.73
2022-09-24T18:10:27.909Z,2.80
2022-09-24T18:13:34.277Z,2.22
2022-09-24T18:16:37.077Z,2.78
2022-09-24T18:19:39.473Z,3.10
2022-09-24T18:22:42.478Z,2.70
2022-09-24T18:25:44.985Z,3.40
2022-09-24T18:28:58.847Z,2.70
2022-09-24T18:32:01.818Z,2.85
2022-09-24T18:35:07.875Z,2.90
2022-09-24T18:38:10.398Z,2.80
2022-09-24T18:41:15.500Z,2.60
2022-09-24T18:44:19.708Z,2.60
2022-09-24T18:47:22.518Z,3.10
2022-09-24T18:50:26.187Z,3.45
2022-09-24T18:53:32.422Z,2.93
2022-09-24T18:56:36.210Z,2.83
2022-09-24T18:59:45.104Z,2.40
2022-09-24T19:02:48.750Z,2.42
2022-09-24T19:05:56.231Z,2.10
2022-09-24T19:08:58.758Z,1.97
2022-09-24T19:12:05.090Z,2.50
2022-09-24T19:15:08.315Z,2.60
2022-09-24T19:18:14.681Z,2.78
2022-09-24T19:21:17.347Z,3.30
2022-09-24T19:24:22.547Z,3.13
2022-09-24T19:27:25.044Z,4.07
2022-09-24T19:30:27.903Z,3.58
2022-09-24T19:33:30.420Z,3.67
2022-09-24T19:36:42.994Z,4.10
2022-09-24T19:39:46.224Z,3.70
2022-09-24T19:42:49.009Z,3.37
2022-09-24T19:45:58.884Z,3.35
2022-09-24T19:49:02.578Z,3.28
2022-09-24T19:52:05.038Z,3.25
2022-09-24T19:55:08.073Z,3.60
2022-09-24T19:58:11.249Z,3.50
2022-09-24T20:01:17.342Z,3.30
2022-09-24T20:04:20.645Z,3.03
2022-09-24T20:07:23.056Z,2.80
2022-09-24T20:10:26.014Z,2.93
2022-09-24T20:13:28.854Z,3.08
2022-09-24T20:16:35.014Z,3.10
2022-09-24T20:19:38.172Z,3.15
2022-09-24T20:22:41.186Z,2.92
2022-09-24T20:26:08.393Z,3.30
2022-09-24T20:29:12.428Z,3.12
2022-09-24T20:32:16.372Z,3.40
2022-09-24T20:35:19.146Z,3.35
2022-09-24T20:38:22.514Z,2.62
2022-09-24T20:41:25.783Z,2.80
2022-09-24T20:44:28.498Z,2.90
2022-09-24T20:47:31.295Z,3.42
2022-09-24T20:50:34.681Z,3.05
2022-09-24T20:53:38.049Z,3.03
2022-09-24T20:56:40.850Z,3.57
2022-09-24T20:59:43.667Z,3.37
2022-09-24T21:02:46.239Z,3.10
2022-09-24T21:05:52.366Z,3.20
2022-09-24T21:08:54.875Z,3.15
2022-09-24T21:11:57.608Z,3.27
2022-09-24T21:15:00.051Z,3.20
2022-09-24T21:18:21.741Z,2.47
2022-09-24T21:21:27.452Z,2.60
2022-09-24T21:24:31.770Z,2.55
2022-09-24T21:27:34.381Z,2.93
2022-09-24T21:30:37.230Z,2.40
2022-09-24T21:33:39.791Z,2.70
2022-09-24T21:36:45.530Z,2.72
2022-09-24T21:39:48.058Z,2.90
2022-09-24T21:42:52.128Z,3.00
2022-09-24T21:46:04.145Z,2.80
2022-09-24T21:49:07.113Z,2.45
2022-09-24T21:52:09.674Z,2.83
2022-09-24T21:55:14.055Z,2.60
2022-09-24T21:58:16.512Z,2.70
2022-09-24T22:01:30.344Z,2.97
2022-09-24T22:04:34.220Z,2.90
2022-09-24T22:07:38.248Z,2.65
2022-09-24T22:10:42.647Z,2.80
2022-09-24T22:13:45.260Z,2.90
2022-09-24T22:16:48.528Z,2.67
2022-09-24T22:19:51.030Z,3.28
2022-09-24T22:22:53.808Z,2.67
2022-09-24T22:25:57.762Z,3.20
2022-09-24T22:29:01.003Z,3.00
2022-09-24T22:32:03.881Z,2.60
2022-09-24T22:35:25.375Z,2.87
2022-09-24T22:38:28.472Z,2.80
2022-09-24T22:41:31.487Z,2.78
2022-09-24T22:44:34.040Z,2.90
2022-09-24T22:47:36.753Z,3.20
2022-09-24T22:50:39.272Z,3.10
2022-09-24T22:53:42.197Z,2.80
2022-09-24T22:56:44.790Z,3.00
2022-09-24T22:59:47.681Z,3.20
2022-09-24T23:02:50.128Z,2.83
2022-09-24T23:05:53.341Z,2.83
2022-09-24T23:08:56.474Z,2.58
2022-09-24T23:11:59.244Z,2.70
2022-09-24T23:15:01.721Z,3.23
2022-09-24T23:18:05.555Z,2.67
2022-09-24T23:21:10.668Z,3.00
2022-09-24T23:24:16.968Z,2.83
2022-09-24T23:27:20.318Z,2.90
2022-09-24T23:30:23.739Z,3.30
2022-09-24T23:33:26.367Z,2.58
2022-09-24T23:36:34.022Z,3.47
2022-09-24T23:39:38.341Z,3.00
2022-09-24T23:42:41.223Z,2.87
2022-09-24T23:45:44.672Z,3.00
2022-09-24T23:48:47.853Z,2.65
2022-09-24T23:51:50.368Z,3.30
2022-09-24T23:54:53.240Z,3.45
2022-09-24T23:57:55.673Z,3.20
